sensor_id;sensor_type;location;lat;lon;timestamp;P1;durP1;ratioP1;P2;durP2;ratioP2
36651;SDS011;53334;51.976;20.144;2023-08-06T00:00:52;4.95;;;3.75;;
36651;SDS011;53334;51.976;20.144;2023-08-06T00:03:25;4.45;;;3.67;;
36651;SDS011;53334;51.976;20.144;2023-08-06T00:06:00;4.22;;;3.22;;
36651;SDS011;53334;51.976;20.144;2023-08-06T00:08:33;3.53;;;3.03;;
36651;SDS011;53334;51.976;20.144;2023-08-06T00:11:07;3.90;;;3.53;;
36651;SDS011;53334;51.976;20.144;2023-08-06T00:16:14;3.17;;;2.88;;
36651;SDS011;53334;51.976;20.144;2023-08-06T00:18:47;3.70;;;3.05;;
36651;SDS011;53334;51.976;20.144;2023-08-06T00:21:22;5.18;;;3.47;;
36651;SDS011;53334;51.976;20.144;2023-08-06T00:23:55;6.63;;;3.28;;
36651;SDS011;53334;51.976;20.144;2023-08-06T00:26:29;4.28;;;3.58;;
36651;SDS011;53334;51.976;20.144;2023-08-06T00:29:02;5.07;;;3.53;;
36651;SDS011;53334;51.976;20.144;2023-08-06T00:31:36;5.25;;;3.65;;
36651;SDS011;53334;51.976;20.144;2023-08-06T00:34:09;4.22;;;3.60;;
36651;SDS011;53334;51.976;20.144;2023-08-06T00:36:44;4.80;;;3.45;;
36651;SDS011;53334;51.976;20.144;2023-08-06T00:39:17;2.80;;;2.42;;
36651;SDS011;53334;51.976;20.144;2023-08-06T00:41:51;3.20;;;2.75;;
36651;SDS011;53334;51.976;20.144;2023-08-06T00:44:25;3.17;;;2.88;;
36651;SDS011;53334;51.976;20.144;2023-08-06T00:46:58;3.45;;;3.08;;
36651;SDS011;53334;51.976;20.144;2023-08-06T00:49:31;3.83;;;3.33;;
36651;SDS011;53334;51.976;20.144;2023-08-06T00:52:07;3.15;;;2.85;;
36651;SDS011;53334;51.976;20.144;2023-08-06T00:54:42;4.60;;;3.15;;
36651;SDS011;53334;51.976;20.144;2023-08-06T00:57:15;3.83;;;3.30;;
36651;SDS011;53334;51.976;20.144;2023-08-06T01:02:22;3.63;;;3.03;;
36651;SDS011;53334;51.976;20.144;2023-08-06T01:04:56;3.60;;;2.97;;
36651;SDS011;53334;51.976;20.144;2023-08-06T01:07:36;4.00;;;3.50;;
36651;SDS011;53334;51.976;20.144;2023-08-06T01:10:27;3.22;;;2.90;;
36651;SDS011;53334;51.976;20.144;2023-08-06T01:13:13;2.75;;;2.38;;
36651;SDS011;53334;51.976;20.144;2023-08-06T01:15:56;3.67;;;3.10;;
36651;SDS011;53334;51.976;20.144;2023-08-06T01:18:31;2.50;;;2.30;;
36651;SDS011;53334;51.976;20.144;2023-08-06T01:21:07;3.10;;;2.55;;
36651;SDS011;53334;51.976;20.144;2023-08-06T01:23:41;3.17;;;2.72;;
36651;SDS011;53334;51.976;20.144;2023-08-06T01:26:17;2.88;;;2.60;;
36651;SDS011;53334;51.976;20.144;2023-08-06T01:28:58;2.83;;;2.50;;
36651;SDS011;53334;51.976;20.144;2023-08-06T01:31:37;2.70;;;2.50;;
36651;SDS011;53334;51.976;20.144;2023-08-06T01:34:13;4.53;;;3.20;;
36651;SDS011;53334;51.976;20.144;2023-08-06T01:36:51;3.10;;;2.80;;
36651;SDS011;53334;51.976;20.144;2023-08-06T01:39:25;3.88;;;3.00;;
36651;SDS011;53334;51.976;20.144;2023-08-06T01:41:59;2.83;;;2.53;;
36651;SDS011;53334;51.976;20.144;2023-08-06T01:44:33;3.53;;;2.85;;
36651;SDS011;53334;51.976;20.144;2023-08-06T01:47:06;3.25;;;2.83;;
36651;SDS011;53334;51.976;20.144;2023-08-06T01:52:15;3.25;;;2.25;;
36651;SDS011;53334;51.976;20.144;2023-08-06T01:54:48;2.88;;;2.63;;
36651;SDS011;53334;51.976;20.144;2023-08-06T01:57:21;4.88;;;2.97;;
36651;SDS011;53334;51.976;20.144;2023-08-06T01:59:55;3.30;;;3.00;;
36651;SDS011;53334;51.976;20.144;2023-08-06T02:02:28;3.08;;;2.78;;
36651;SDS011;53334;51.976;20.144;2023-08-06T02:05:02;2.72;;;2.47;;
36651;SDS011;53334;51.976;20.144;2023-08-06T02:07:37;2.80;;;2.28;;
36651;SDS011;53334;51.976;20.144;2023-08-06T02:10:11;4.93;;;2.97;;
36651;SDS011;53334;51.976;20.144;2023-08-06T02:12:44;3.15;;;2.50;;
36651;SDS011;53334;51.976;20.144;2023-08-06T02:15:18;3.78;;;2.72;;
36651;SDS011;53334;51.976;20.144;2023-08-06T02:17:51;2.60;;;2.30;;
36651;SDS011;53334;51.976;20.144;2023-08-06T02:20:25;2.90;;;2.67;;
36651;SDS011;53334;51.976;20.144;2023-08-06T02:23:00;3.10;;;2.80;;
36651;SDS011;53334;51.976;20.144;2023-08-06T02:25:33;2.50;;;2.28;;
36651;SDS011;53334;51.976;20.144;2023-08-06T02:30:49;2.90;;;2.38;;
36651;SDS011;53334;51.976;20.144;2023-08-06T02:33:22;2.28;;;2.10;;
36651;SDS011;53334;51.976;20.144;2023-08-06T02:35:59;2.53;;;2.33;;
36651;SDS011;53334;51.976;20.144;2023-08-06T02:38:34;2.60;;;2.40;;
36651;SDS011;53334;51.976;20.144;2023-08-06T02:41:08;2.85;;;2.30;;
36651;SDS011;53334;51.976;20.144;2023-08-06T02:43:41;3.08;;;2.58;;
36651;SDS011;53334;51.976;20.144;2023-08-06T02:46:14;2.55;;;2.35;;
36651;SDS011;53334;51.976;20.144;2023-08-06T02:48:48;3.28;;;2.88;;
36651;SDS011;53334;51.976;20.144;2023-08-06T02:51:21;4.13;;;2.63;;
36651;SDS011;53334;51.976;20.144;2023-08-06T02:53:56;3.30;;;2.58;;
36651;SDS011;53334;51.976;20.144;2023-08-06T02:56:30;2.83;;;2.63;;
36651;SDS011;53334;51.976;20.144;2023-08-06T02:59:12;2.17;;;2.08;;
36651;SDS011;53334;51.976;20.144;2023-08-06T03:01:55;2.33;;;2.08;;
36651;SDS011;53334;51.976;20.144;2023-08-06T03:04:42;4.35;;;2.78;;
36651;SDS011;53334;51.976;20.144;2023-08-06T03:07:17;2.83;;;2.63;;
36651;SDS011;53334;51.976;20.144;2023-08-06T03:09:58;2.95;;;2.58;;
36651;SDS011;53334;51.976;20.144;2023-08-06T03:12:33;2.30;;;2.10;;
36651;SDS011;53334;51.976;20.144;2023-08-06T03:15:09;2.40;;;2.17;;
36651;SDS011;53334;51.976;20.144;2023-08-06T03:17:44;3.72;;;2.47;;
36651;SDS011;53334;51.976;20.144;2023-08-06T03:20:19;3.58;;;2.75;;
36651;SDS011;53334;51.976;20.144;2023-08-06T03:22:52;3.28;;;2.17;;
36651;SDS011;53334;51.976;20.144;2023-08-06T03:25:27;2.75;;;2.53;;
36651;SDS011;53334;51.976;20.144;2023-08-06T03:28:01;2.30;;;2.15;;
36651;SDS011;53334;51.976;20.144;2023-08-06T03:30:36;2.78;;;2.58;;
36651;SDS011;53334;51.976;20.144;2023-08-06T03:33:10;2.85;;;2.65;;
36651;SDS011;53334;51.976;20.144;2023-08-06T03:35:44;2.92;;;2.63;;
36651;SDS011;53334;51.976;20.144;2023-08-06T03:38:17;2.20;;;2.00;;
36651;SDS011;53334;51.976;20.144;2023-08-06T03:40:52;3.30;;;2.40;;
36651;SDS011;53334;51.976;20.144;2023-08-06T03:43:25;2.05;;;1.88;;
36651;SDS011;53334;51.976;20.144;2023-08-06T03:45:59;2.72;;;2.40;;
36651;SDS011;53334;51.976;20.144;2023-08-06T03:48:32;2.28;;;2.15;;
36651;SDS011;53334;51.976;20.144;2023-08-06T03:51:06;2.60;;;2.40;;
36651;SDS011;53334;51.976;20.144;2023-08-06T03:53:39;2.50;;;2.30;;
36651;SDS011;53334;51.976;20.144;2023-08-06T03:56:15;2.30;;;2.10;;
36651;SDS011;53334;51.976;20.144;2023-08-06T03:58:48;2.75;;;2.05;;
36651;SDS011;53334;51.976;20.144;2023-08-06T04:06:30;2.70;;;2.50;;
36651;SDS011;53334;51.976;20.144;2023-08-06T04:09:03;3.58;;;2.20;;
36651;SDS011;53334;51.976;20.144;2023-08-06T04:11:38;2.72;;;2.38;;
36651;SDS011;53334;51.976;20.144;2023-08-06T04:14:12;2.58;;;2.38;;
36651;SDS011;53334;51.976;20.144;2023-08-06T04:16:46;2.60;;;2.40;;
36651;SDS011;53334;51.976;20.144;2023-08-06T04:19:19;2.63;;;2.33;;
36651;SDS011;53334;51.976;20.144;2023-08-06T04:21:52;2.40;;;2.20;;
36651;SDS011;53334;51.976;20.144;2023-08-06T04:24:26;2.83;;;2.60;;
36651;SDS011;53334;51.976;20.144;2023-08-06T04:27:01;2.45;;;2.30;;
36651;SDS011;53334;51.976;20.144;2023-08-06T04:29:34;2.33;;;2.13;;
36651;SDS011;53334;51.976;20.144;2023-08-06T04:32:08;2.67;;;2.40;;
36651;SDS011;53334;51.976;20.144;2023-08-06T04:34:47;3.33;;;1.98;;
36651;SDS011;53334;51.976;20.144;2023-08-06T04:37:20;2.90;;;2.70;;
36651;SDS011;53334;51.976;20.144;2023-08-06T04:39:53;3.00;;;2.78;;
36651;SDS011;53334;51.976;20.144;2023-08-06T04:42:28;3.63;;;2.50;;
36651;SDS011;53334;51.976;20.144;2023-08-06T04:45:02;2.67;;;2.47;;
36651;SDS011;53334;51.976;20.144;2023-08-06T04:47:36;2.50;;;2.30;;
36651;SDS011;53334;51.976;20.144;2023-08-06T04:50:09;2.50;;;2.30;;
36651;SDS011;53334;51.976;20.144;2023-08-06T04:52:43;2.75;;;2.35;;
36651;SDS011;53334;51.976;20.144;2023-08-06T04:55:16;2.28;;;2.08;;
36651;SDS011;53334;51.976;20.144;2023-08-06T04:57:51;2.38;;;2.17;;
36651;SDS011;53334;51.976;20.144;2023-08-06T05:00:24;2.55;;;2.35;;
36651;SDS011;53334;51.976;20.144;2023-08-06T05:02:58;2.60;;;2.40;;
36651;SDS011;53334;51.976;20.144;2023-08-06T05:05:32;2.42;;;2.22;;
36651;SDS011;53334;51.976;20.144;2023-08-06T05:08:05;2.60;;;2.40;;
36651;SDS011;53334;51.976;20.144;2023-08-06T05:10:39;2.70;;;2.50;;
36651;SDS011;53334;51.976;20.144;2023-08-06T05:13:16;2.45;;;2.25;;
36651;SDS011;53334;51.976;20.144;2023-08-06T05:15:49;2.40;;;2.20;;
36651;SDS011;53334;51.976;20.144;2023-08-06T05:18:23;2.65;;;2.28;;
36651;SDS011;53334;51.976;20.144;2023-08-06T05:20:56;2.40;;;2.20;;
36651;SDS011;53334;51.976;20.144;2023-08-06T05:23:30;2.38;;;2.15;;
36651;SDS011;53334;51.976;20.144;2023-08-06T05:26:03;2.40;;;2.25;;
36651;SDS011;53334;51.976;20.144;2023-08-06T05:28:37;2.60;;;2.40;;
36651;SDS011;53334;51.976;20.144;2023-08-06T05:31:12;2.50;;;2.30;;
36651;SDS011;53334;51.976;20.144;2023-08-06T05:33:46;2.55;;;2.35;;
36651;SDS011;53334;51.976;20.144;2023-08-06T05:36:19;3.25;;;2.40;;
36651;SDS011;53334;51.976;20.144;2023-08-06T05:38:52;2.40;;;2.20;;
36651;SDS011;53334;51.976;20.144;2023-08-06T05:41:26;3.55;;;2.67;;
36651;SDS011;53334;51.976;20.144;2023-08-06T05:44:00;2.22;;;2.10;;
36651;SDS011;53334;51.976;20.144;2023-08-06T05:46:35;2.22;;;1.90;;
36651;SDS011;53334;51.976;20.144;2023-08-06T05:49:08;2.22;;;2.05;;
36651;SDS011;53334;51.976;20.144;2023-08-06T05:51:44;2.78;;;2.58;;
36651;SDS011;53334;51.976;20.144;2023-08-06T05:54:17;4.00;;;2.65;;
36651;SDS011;53334;51.976;20.144;2023-08-06T05:56:50;2.75;;;2.55;;
36651;SDS011;53334;51.976;20.144;2023-08-06T05:59:25;2.55;;;2.35;;
36651;SDS011;53334;51.976;20.144;2023-08-06T06:01:58;2.60;;;2.35;;
36651;SDS011;53334;51.976;20.144;2023-08-06T06:04:31;2.47;;;2.13;;
36651;SDS011;53334;51.976;20.144;2023-08-06T06:07:05;2.28;;;2.17;;
36651;SDS011;53334;51.976;20.144;2023-08-06T06:09:38;2.55;;;2.35;;
36651;SDS011;53334;51.976;20.144;2023-08-06T06:12:11;2.75;;;2.35;;
36651;SDS011;53334;51.976;20.144;2023-08-06T06:14:46;2.67;;;2.47;;
36651;SDS011;53334;51.976;20.144;2023-08-06T06:17:20;2.38;;;2.10;;
36651;SDS011;53334;51.976;20.144;2023-08-06T06:19:53;2.17;;;2.05;;
36651;SDS011;53334;51.976;20.144;2023-08-06T06:22:26;2.95;;;2.40;;
36651;SDS011;53334;51.976;20.144;2023-08-06T06:25:00;2.63;;;2.40;;
36651;SDS011;53334;51.976;20.144;2023-08-06T06:27:33;2.25;;;2.00;;
36651;SDS011;53334;51.976;20.144;2023-08-06T06:30:09;3.00;;;2.65;;
36651;SDS011;53334;51.976;20.144;2023-08-06T06:32:44;2.50;;;2.30;;
36651;SDS011;53334;51.976;20.144;2023-08-06T06:35:17;2.60;;;2.40;;
36651;SDS011;53334;51.976;20.144;2023-08-06T06:37:51;2.72;;;2.53;;
36651;SDS011;53334;51.976;20.144;2023-08-06T06:40:24;2.30;;;2.10;;
36651;SDS011;53334;51.976;20.144;2023-08-06T06:42:57;2.50;;;2.30;;
36651;SDS011;53334;51.976;20.144;2023-08-06T06:50:39;2.67;;;2.30;;
36651;SDS011;53334;51.976;20.144;2023-08-06T06:53:12;2.20;;;2.05;;
36651;SDS011;53334;51.976;20.144;2023-08-06T06:55:45;2.92;;;2.50;;
36651;SDS011;53334;51.976;20.144;2023-08-06T06:58:20;3.03;;;2.78;;
36651;SDS011;53334;51.976;20.144;2023-08-06T07:00:55;2.40;;;2.20;;
36651;SDS011;53334;51.976;20.144;2023-08-06T07:03:28;3.75;;;2.53;;
36651;SDS011;53334;51.976;20.144;2023-08-06T07:06:02;2.42;;;2.22;;
36651;SDS011;53334;51.976;20.144;2023-08-06T07:08:35;2.72;;;2.53;;
36651;SDS011;53334;51.976;20.144;2023-08-06T07:11:08;4.32;;;2.80;;
36651;SDS011;53334;51.976;20.144;2023-08-06T07:13:42;2.63;;;2.42;;
36651;SDS011;53334;51.976;20.144;2023-08-06T07:16:16;2.75;;;2.55;;
36651;SDS011;53334;51.976;20.144;2023-08-06T07:18:50;2.22;;;2.05;;
36651;SDS011;53334;51.976;20.144;2023-08-06T07:21:24;2.40;;;2.20;;
36651;SDS011;53334;51.976;20.144;2023-08-06T07:23:58;2.75;;;2.55;;
36651;SDS011;53334;51.976;20.144;2023-08-06T07:26:31;3.15;;;2.75;;
36651;SDS011;53334;51.976;20.144;2023-08-06T07:29:05;22.65;;;15.38;;
36651;SDS011;53334;51.976;20.144;2023-08-06T07:31:40;23.42;;;18.65;;
36651;SDS011;53334;51.976;20.144;2023-08-06T07:34:14;19.92;;;15.93;;
36651;SDS011;53334;51.976;20.144;2023-08-06T07:36:47;21.48;;;16.77;;
36651;SDS011;53334;51.976;20.144;2023-08-06T07:41:55;21.88;;;16.70;;
36651;SDS011;53334;51.976;20.144;2023-08-06T07:44:28;22.77;;;16.00;;
36651;SDS011;53334;51.976;20.144;2023-08-06T07:47:03;20.77;;;16.63;;
36651;SDS011;53334;51.976;20.144;2023-08-06T07:49:37;18.58;;;16.45;;
36651;SDS011;53334;51.976;20.144;2023-08-06T07:52:13;18.65;;;16.05;;
36651;SDS011;53334;51.976;20.144;2023-08-06T07:54:46;21.58;;;16.80;;
36651;SDS011;53334;51.976;20.144;2023-08-06T07:57:20;20.00;;;17.88;;
36651;SDS011;53334;51.976;20.144;2023-08-06T07:59:53;27.27;;;16.95;;
36651;SDS011;53334;51.976;20.144;2023-08-06T08:02:28;21.42;;;16.55;;
36651;SDS011;53334;51.976;20.144;2023-08-06T08:05:01;17.73;;;15.90;;
36651;SDS011;53334;51.976;20.144;2023-08-06T08:10:08;20.55;;;16.63;;
36651;SDS011;53334;51.976;20.144;2023-08-06T08:12:42;21.10;;;17.02;;
36651;SDS011;53334;51.976;20.144;2023-08-06T08:15:15;20.05;;;16.65;;
36651;SDS011;53334;51.976;20.144;2023-08-06T08:17:50;20.20;;;17.73;;
36651;SDS011;53334;51.976;20.144;2023-08-06T08:20:24;21.05;;;17.45;;
36651;SDS011;53334;51.976;20.144;2023-08-06T08:23:02;22.60;;;18.50;;
36651;SDS011;53334;51.976;20.144;2023-08-06T08:25:36;20.83;;;18.70;;
36651;SDS011;53334;51.976;20.144;2023-08-06T08:28:09;22.85;;;20.25;;
36651;SDS011;53334;51.976;20.144;2023-08-06T08:30:42;24.08;;;19.17;;
36651;SDS011;53334;51.976;20.144;2023-08-06T08:33:17;23.80;;;21.48;;
36651;SDS011;53334;51.976;20.144;2023-08-06T08:35:50;26.00;;;20.65;;
36651;SDS011;53334;51.976;20.144;2023-08-06T08:38:24;27.88;;;22.83;;
36651;SDS011;53334;51.976;20.144;2023-08-06T08:40:57;25.95;;;22.65;;
36651;SDS011;53334;51.976;20.144;2023-08-06T08:43:31;26.10;;;23.33;;
36651;SDS011;53334;51.976;20.144;2023-08-06T08:48:39;27.70;;;22.67;;
36651;SDS011;53334;51.976;20.144;2023-08-06T08:51:13;33.20;;;23.85;;
36651;SDS011;53334;51.976;20.144;2023-08-06T08:53:47;29.83;;;23.27;;
36651;SDS011;53334;51.976;20.144;2023-08-06T08:56:27;29.90;;;25.15;;
36651;SDS011;53334;51.976;20.144;2023-08-06T08:59:00;33.63;;;24.40;;
36651;SDS011;53334;51.976;20.144;2023-08-06T09:01:34;28.55;;;25.10;;
36651;SDS011;53334;51.976;20.144;2023-08-06T09:04:09;27.00;;;23.45;;
36651;SDS011;53334;51.976;20.144;2023-08-06T09:06:45;30.40;;;24.92;;
36651;SDS011;53334;51.976;20.144;2023-08-06T09:09:24;26.55;;;23.70;;
36651;SDS011;53334;51.976;20.144;2023-08-06T09:12:00;29.67;;;23.55;;
36651;SDS011;53334;51.976;20.144;2023-08-06T09:14:34;29.65;;;25.88;;
36651;SDS011;53334;51.976;20.144;2023-08-06T09:17:08;30.15;;;26.17;;
36651;SDS011;53334;51.976;20.144;2023-08-06T09:19:43;30.27;;;24.67;;
36651;SDS011;53334;51.976;20.144;2023-08-06T09:22:18;31.00;;;24.42;;
36651;SDS011;53334;51.976;20.144;2023-08-06T09:24:51;29.80;;;24.25;;
36651;SDS011;53334;51.976;20.144;2023-08-06T09:27:24;27.50;;;24.58;;
36651;SDS011;53334;51.976;20.144;2023-08-06T09:29:59;31.08;;;23.30;;
36651;SDS011;53334;51.976;20.144;2023-08-06T09:35:18;28.30;;;22.70;;
36651;SDS011;53334;51.976;20.144;2023-08-06T09:37:52;30.63;;;24.27;;
36651;SDS011;53334;51.976;20.144;2023-08-06T09:40:26;29.00;;;24.60;;
36651;SDS011;53334;51.976;20.144;2023-08-06T09:43:00;28.83;;;23.75;;
36651;SDS011;53334;51.976;20.144;2023-08-06T09:45:37;28.30;;;22.60;;
36651;SDS011;53334;51.976;20.144;2023-08-06T09:50:45;26.15;;;20.23;;
36651;SDS011;53334;51.976;20.144;2023-08-06T09:53:19;25.40;;;22.70;;
36651;SDS011;53334;51.976;20.144;2023-08-06T09:55:52;25.20;;;22.50;;
36651;SDS011;53334;51.976;20.144;2023-08-06T09:58:27;24.30;;;21.70;;
36651;SDS011;53334;51.976;20.144;2023-08-06T10:01:00;28.08;;;21.63;;
36651;SDS011;53334;51.976;20.144;2023-08-06T10:03:35;28.63;;;23.08;;
36651;SDS011;53334;51.976;20.144;2023-08-06T10:06:12;22.35;;;20.02;;
36651;SDS011;53334;51.976;20.144;2023-08-06T10:08:45;23.17;;;20.35;;
36651;SDS011;53334;51.976;20.144;2023-08-06T10:11:19;22.05;;;19.70;;
36651;SDS011;53334;51.976;20.144;2023-08-06T10:13:57;21.85;;;19.42;;
36651;SDS011;53334;51.976;20.144;2023-08-06T10:16:35;21.48;;;19.27;;
36651;SDS011;53334;51.976;20.144;2023-08-06T10:19:10;21.08;;;18.92;;
36651;SDS011;53334;51.976;20.144;2023-08-06T10:24:48;21.88;;;18.60;;
36651;SDS011;53334;51.976;20.144;2023-08-06T10:27:22;22.70;;;17.17;;
36651;SDS011;53334;51.976;20.144;2023-08-06T10:32:54;19.88;;;17.90;;
36651;SDS011;53334;51.976;20.144;2023-08-06T10:35:29;19.75;;;17.55;;
36651;SDS011;53334;51.976;20.144;2023-08-06T10:38:07;19.88;;;16.80;;
36651;SDS011;53334;51.976;20.144;2023-08-06T10:40:47;20.60;;;18.40;;
36651;SDS011;53334;51.976;20.144;2023-08-06T10:43:24;21.67;;;18.83;;
36651;SDS011;53334;51.976;20.144;2023-08-06T10:45:59;22.63;;;17.77;;
36651;SDS011;53334;51.976;20.144;2023-08-06T10:48:34;22.05;;;19.27;;
36651;SDS011;53334;51.976;20.144;2023-08-06T10:51:09;19.85;;;17.23;;
36651;SDS011;53334;51.976;20.144;2023-08-06T10:53:45;18.70;;;16.70;;
36651;SDS011;53334;51.976;20.144;2023-08-06T10:56:20;19.60;;;16.63;;
36651;SDS011;53334;51.976;20.144;2023-08-06T10:58:55;19.50;;;16.63;;
36651;SDS011;53334;51.976;20.144;2023-08-06T11:01:28;26.55;;;18.25;;
36651;SDS011;53334;51.976;20.144;2023-08-06T11:04:02;19.77;;;17.02;;
36651;SDS011;53334;51.976;20.144;2023-08-06T11:06:36;17.73;;;15.93;;
36651;SDS011;53334;51.976;20.144;2023-08-06T11:09:11;19.15;;;15.38;;
36651;SDS011;53334;51.976;20.144;2023-08-06T11:11:44;18.40;;;15.75;;
36651;SDS011;53334;51.976;20.144;2023-08-06T11:14:18;22.05;;;18.30;;
36651;SDS011;53334;51.976;20.144;2023-08-06T11:16:51;19.80;;;16.60;;
36651;SDS011;53334;51.976;20.144;2023-08-06T11:19:26;17.88;;;16.13;;
36651;SDS011;53334;51.976;20.144;2023-08-06T11:21:59;18.35;;;15.15;;
36651;SDS011;53334;51.976;20.144;2023-08-06T11:24:35;16.77;;;14.60;;
36651;SDS011;53334;51.976;20.144;2023-08-06T11:27:11;16.30;;;14.27;;
36651;SDS011;53334;51.976;20.144;2023-08-06T11:29:45;15.48;;;13.90;;
36651;SDS011;53334;51.976;20.144;2023-08-06T11:32:19;17.85;;;15.70;;
36651;SDS011;53334;51.976;20.144;2023-08-06T11:34:52;15.93;;;14.38;;
36651;SDS011;53334;51.976;20.144;2023-08-06T11:37:27;15.25;;;13.82;;
36651;SDS011;53334;51.976;20.144;2023-08-06T11:40:05;15.57;;;13.98;;
36651;SDS011;53334;51.976;20.144;2023-08-06T11:42:42;15.85;;;14.25;;
36651;SDS011;53334;51.976;20.144;2023-08-06T11:45:16;16.15;;;14.52;;
36651;SDS011;53334;51.976;20.144;2023-08-06T11:47:50;19.00;;;14.43;;
36651;SDS011;53334;51.976;20.144;2023-08-06T11:50:25;14.55;;;13.18;;
36651;SDS011;53334;51.976;20.144;2023-08-06T11:52:59;16.35;;;14.75;;
36651;SDS011;53334;51.976;20.144;2023-08-06T11:55:35;15.40;;;13.90;;
36651;SDS011;53334;51.976;20.144;2023-08-06T11:58:09;17.10;;;13.02;;
36651;SDS011;53334;51.976;20.144;2023-08-06T12:00:43;15.43;;;12.18;;
36651;SDS011;53334;51.976;20.144;2023-08-06T12:03:18;15.20;;;13.63;;
36651;SDS011;53334;51.976;20.144;2023-08-06T12:05:53;15.52;;;13.63;;
36651;SDS011;53334;51.976;20.144;2023-08-06T12:08:26;13.82;;;12.45;;
36651;SDS011;53334;51.976;20.144;2023-08-06T12:11:01;15.77;;;13.10;;
36651;SDS011;53334;51.976;20.144;2023-08-06T12:13:35;14.13;;;12.48;;
36651;SDS011;53334;51.976;20.144;2023-08-06T12:16:08;18.42;;;12.02;;
36651;SDS011;53334;51.976;20.144;2023-08-06T12:18:41;19.13;;;12.98;;
36651;SDS011;53334;51.976;20.144;2023-08-06T12:21:15;16.80;;;12.40;;
36651;SDS011;53334;51.976;20.144;2023-08-06T12:23:48;13.90;;;12.50;;
36651;SDS011;53334;51.976;20.144;2023-08-06T12:26:23;14.50;;;13.00;;
36651;SDS011;53334;51.976;20.144;2023-08-06T12:28:56;15.48;;;13.15;;
36651;SDS011;53334;51.976;20.144;2023-08-06T12:31:29;14.80;;;11.95;;
36651;SDS011;53334;51.976;20.144;2023-08-06T12:34:02;14.18;;;12.65;;
36651;SDS011;53334;51.976;20.144;2023-08-06T12:36:36;11.48;;;10.38;;
36651;SDS011;53334;51.976;20.144;2023-08-06T12:39:09;13.80;;;11.32;;
36651;SDS011;53334;51.976;20.144;2023-08-06T12:41:44;13.75;;;10.45;;
36651;SDS011;53334;51.976;20.144;2023-08-06T12:44:18;12.13;;;10.75;;
36651;SDS011;53334;51.976;20.144;2023-08-06T12:49:25;11.65;;;9.85;;
36651;SDS011;53334;51.976;20.144;2023-08-06T12:52:00;11.55;;;10.35;;
36651;SDS011;53334;51.976;20.144;2023-08-06T12:54:33;11.38;;;10.18;;
36651;SDS011;53334;51.976;20.144;2023-08-06T12:57:09;12.43;;;9.85;;
36651;SDS011;53334;51.976;20.144;2023-08-06T12:59:43;11.25;;;9.95;;
36651;SDS011;53334;51.976;20.144;2023-08-06T13:02:16;10.75;;;9.52;;
36651;SDS011;53334;51.976;20.144;2023-08-06T13:04:49;14.60;;;9.93;;
36651;SDS011;53334;51.976;20.144;2023-08-06T13:07:22;10.95;;;9.88;;
36651;SDS011;53334;51.976;20.144;2023-08-06T13:09:57;12.00;;;9.73;;
36651;SDS011;53334;51.976;20.144;2023-08-06T13:12:31;13.20;;;10.02;;
36651;SDS011;53334;51.976;20.144;2023-08-06T13:15:05;10.23;;;9.13;;
36651;SDS011;53334;51.976;20.144;2023-08-06T13:17:40;11.00;;;9.38;;
36651;SDS011;53334;51.976;20.144;2023-08-06T13:20:13;10.77;;;8.68;;
36651;SDS011;53334;51.976;20.144;2023-08-06T13:22:50;9.80;;;8.75;;
36651;SDS011;53334;51.976;20.144;2023-08-06T13:25:25;9.32;;;8.43;;
36651;SDS011;53334;51.976;20.144;2023-08-06T13:27:59;8.88;;;8.07;;
36651;SDS011;53334;51.976;20.144;2023-08-06T13:30:33;9.82;;;8.82;;
36651;SDS011;53334;51.976;20.144;2023-08-06T13:35:40;9.38;;;8.23;;
36651;SDS011;53334;51.976;20.144;2023-08-06T13:38:13;8.50;;;7.53;;
36651;SDS011;53334;51.976;20.144;2023-08-06T13:40:46;9.10;;;8.18;;
36651;SDS011;53334;51.976;20.144;2023-08-06T13:43:22;8.52;;;7.72;;
36651;SDS011;53334;51.976;20.144;2023-08-06T13:45:56;9.05;;;8.13;;
36651;SDS011;53334;51.976;20.144;2023-08-06T13:51:03;7.63;;;6.93;;
36651;SDS011;53334;51.976;20.144;2023-08-06T13:53:37;7.47;;;6.78;;
36651;SDS011;53334;51.976;20.144;2023-08-06T13:56:10;7.90;;;7.10;;
36651;SDS011;53334;51.976;20.144;2023-08-06T13:58:45;9.55;;;8.02;;
36651;SDS011;53334;51.976;20.144;2023-08-06T14:01:18;8.07;;;7.38;;
36651;SDS011;53334;51.976;20.144;2023-08-06T14:03:54;8.50;;;7.70;;
36651;SDS011;53334;51.976;20.144;2023-08-06T14:06:28;8.45;;;7.15;;
36651;SDS011;53334;51.976;20.144;2023-08-06T14:09:02;11.23;;;8.43;;
36651;SDS011;53334;51.976;20.144;2023-08-06T14:11:35;7.75;;;7.05;;
36651;SDS011;53334;51.976;20.144;2023-08-06T14:14:10;8.50;;;6.53;;
36651;SDS011;53334;51.976;20.144;2023-08-06T14:16:44;7.05;;;6.35;;
36651;SDS011;53334;51.976;20.144;2023-08-06T14:19:17;12.68;;;7.35;;
36651;SDS011;53334;51.976;20.144;2023-08-06T14:21:50;7.25;;;6.22;;
36651;SDS011;53334;51.976;20.144;2023-08-06T14:24:24;8.63;;;7.10;;
36651;SDS011;53334;51.976;20.144;2023-08-06T14:26:57;7.78;;;5.75;;
36651;SDS011;53334;51.976;20.144;2023-08-06T14:29:32;9.98;;;7.55;;
36651;SDS011;53334;51.976;20.144;2023-08-06T14:32:06;11.50;;;6.75;;
36651;SDS011;53334;51.976;20.144;2023-08-06T14:34:40;14.05;;;6.68;;
36651;SDS011;53334;51.976;20.144;2023-08-06T14:37:13;9.20;;;7.10;;
36651;SDS011;53334;51.976;20.144;2023-08-06T14:39:46;8.23;;;7.43;;
36651;SDS011;53334;51.976;20.144;2023-08-06T14:42:20;13.18;;;6.60;;
36651;SDS011;53334;51.976;20.144;2023-08-06T14:44:55;12.50;;;6.82;;
36651;SDS011;53334;51.976;20.144;2023-08-06T14:47:28;10.57;;;7.03;;
36651;SDS011;53334;51.976;20.144;2023-08-06T14:50:02;12.18;;;6.10;;
36651;SDS011;53334;51.976;20.144;2023-08-06T14:55:09;11.63;;;6.70;;
36651;SDS011;53334;51.976;20.144;2023-08-06T14:57:43;9.20;;;6.45;;
36651;SDS011;53334;51.976;20.144;2023-08-06T15:00:17;13.80;;;6.43;;
36651;SDS011;53334;51.976;20.144;2023-08-06T15:02:51;8.82;;;5.85;;
36651;SDS011;53334;51.976;20.144;2023-08-06T15:05:24;6.43;;;5.75;;
36651;SDS011;53334;51.976;20.144;2023-08-06T15:07:58;10.05;;;5.18;;
36651;SDS011;53334;51.976;20.144;2023-08-06T15:10:31;12.30;;;5.57;;
36651;SDS011;53334;51.976;20.144;2023-08-06T15:13:04;8.88;;;5.50;;
36651;SDS011;53334;51.976;20.144;2023-08-06T15:15:39;6.47;;;5.13;;
36651;SDS011;53334;51.976;20.144;2023-08-06T15:18:14;8.95;;;4.78;;
36651;SDS011;53334;51.976;20.144;2023-08-06T15:20:47;17.77;;;5.97;;
36651;SDS011;53334;51.976;20.144;2023-08-06T15:23:20;13.40;;;4.72;;
36651;SDS011;53334;51.976;20.144;2023-08-06T15:25:54;17.58;;;4.72;;
36651;SDS011;53334;51.976;20.144;2023-08-06T15:28:27;11.88;;;4.97;;
36651;SDS011;53334;51.976;20.144;2023-08-06T15:31:02;29.02;;;6.45;;
36651;SDS011;53334;51.976;20.144;2023-08-06T15:33:37;17.88;;;5.63;;
36651;SDS011;53334;51.976;20.144;2023-08-06T15:36:11;14.60;;;5.68;;
36651;SDS011;53334;51.976;20.144;2023-08-06T15:38:44;12.40;;;5.47;;
36651;SDS011;53334;51.976;20.144;2023-08-06T15:41:17;22.80;;;4.65;;
36651;SDS011;53334;51.976;20.144;2023-08-06T15:43:51;14.07;;;4.30;;
36651;SDS011;53334;51.976;20.144;2023-08-06T15:46:26;11.85;;;4.65;;
36651;SDS011;53334;51.976;20.144;2023-08-06T15:48:59;9.20;;;4.50;;
36651;SDS011;53334;51.976;20.144;2023-08-06T15:51:32;11.85;;;4.60;;
36651;SDS011;53334;51.976;20.144;2023-08-06T15:54:06;20.38;;;5.78;;